createdAt,value
2023-05-13T00:05:12.794Z,98617.56
2023-05-13T00:10:37.780Z,98612.81
2023-05-13T00:16:01.849Z,98613.78
2023-05-13T00:21:29.814Z,98607.50
2023-05-13T00:26:53.842Z,98616.59
2023-05-13T00:32:24.893Z,98618.78
2023-05-13T00:37:52.824Z,98611.88
2023-05-13T00:43:16.805Z,98621.13
2023-05-13T00:48:42.831Z,98615.22
2023-05-13T00:54:10.850Z,98613.38
2023-05-13T00:59:37.824Z,98612.88
2023-05-13T01:05:14.853Z,98607.09
2023-05-13T01:10:48.853Z,98601.81
2023-05-13T01:16:19.859Z,98615.09
2023-05-13T01:21:48.822Z,98623.16
2023-05-13T01:27:14.869Z,98626.75
2023-05-13T01:32:46.926Z,98627.88
2023-05-13T01:38:15.899Z,98628.66
2023-05-13T01:43:44.875Z,98638.22
2023-05-13T01:49:09.841Z,98643.22
2023-05-13T01:54:38.863Z,98642.88
2023-05-13T02:00:05.885Z,98655.34
2023-05-13T02:05:32.868Z,98648.56
2023-05-13T02:11:07.848Z,98643.50
2023-05-13T02:16:33.880Z,98638.09
2023-05-13T02:21:58.858Z,98640.78
2023-05-13T02:27:27.885Z,98631.88
2023-05-13T02:32:52.895Z,98633.72
2023-05-13T02:38:17.896Z,98642.13
2023-05-13T02:43:45.881Z,98638.44
2023-05-13T02:49:09.953Z,98648.34
2023-05-13T02:54:34.898Z,98637.88
2023-05-13T03:00:01.894Z,98625.19
2023-05-13T03:05:29.105Z,98627.69
2023-05-13T03:10:53.885Z,98627.28
2023-05-13T03:16:21.988Z,98627.47
2023-05-13T03:21:45.904Z,98633.84
2023-05-13T03:27:10.957Z,98628.72
2023-05-13T03:32:38.971Z,98638.09
2023-05-13T03:38:03.913Z,98630.34
2023-05-13T03:43:33.937Z,98623.97
2023-05-13T03:49:04.912Z,98638.09
2023-05-13T03:54:29.928Z,98629.34
2023-05-13T03:59:54.946Z,98634.19
2023-05-13T04:05:23.914Z,98640.72
2023-05-13T04:10:48.983Z,98647.97
2023-05-13T04:16:12.990Z,98648.28
2023-05-13T04:21:41.931Z,98656.88
2023-05-13T04:27:06.964Z,98658.28
2023-05-13T04:32:32.066Z,98670.41
2023-05-13T04:37:58.970Z,98675.66
2023-05-13T04:43:23.967Z,98677.91
2023-05-13T04:48:55.002Z,98673.31
2023-05-13T04:54:22.941Z,98675.94
2023-05-13T04:59:47.997Z,98675.28
2023-05-13T05:05:12.965Z,98685.47
2023-05-13T05:10:40.972Z,98688.53
2023-05-13T05:16:06.978Z,98694.13
2023-05-13T05:21:31.959Z,98691.84
2023-05-13T05:27:01.022Z,98707.75
2023-05-13T05:32:34.028Z,98708.81
2023-05-13T05:37:58.985Z,98707.72
2023-05-13T05:43:27.981Z,98711.47
2023-05-13T05:48:53.979Z,98718.47
2023-05-13T05:54:17.977Z,98721.88
2023-05-13T05:59:45.986Z,98731.41
2023-05-13T06:05:10.079Z,98720.66
2023-05-13T06:10:36.015Z,98712.09
2023-05-13T06:16:04.068Z,98705.59
2023-05-13T06:21:28.982Z,98699.41
2023-05-13T06:26:54.010Z,98697.47
2023-05-13T06:32:29.244Z,98686.69
2023-05-13T06:37:55.040Z,98680.25
2023-05-13T06:43:21.027Z,98684.81
2023-05-13T06:48:52.132Z,98688.66
2023-05-13T06:54:17.010Z,98677.63
2023-05-13T06:59:42.084Z,98688.06
2023-05-13T07:05:11.301Z,98688.97
2023-05-13T07:10:36.065Z,98689.25
2023-05-13T07:16:00.059Z,98685.41
2023-05-13T07:21:28.026Z,98679.53
2023-05-13T07:26:52.035Z,98677.69
2023-05-13T07:32:18.078Z,98675.25
2023-05-13T07:37:46.052Z,98679.53
2023-05-13T07:43:11.053Z,98670.19
2023-05-13T07:48:35.057Z,98670.03
2023-05-13T07:54:04.064Z,98669.38
2023-05-13T07:59:29.066Z,98669.31
2023-05-13T08:04:54.165Z,98664.03
2023-05-13T08:10:22.297Z,98679.31
2023-05-13T08:15:48.105Z,98668.91
2023-05-13T08:21:12.093Z,98669.81
2023-05-13T08:26:40.072Z,98668.22
2023-05-13T08:32:11.286Z,98669.03
2023-05-13T08:37:36.102Z,98671.44
2023-05-13T08:43:04.116Z,98669.81
2023-05-13T08:48:30.097Z,98670.13
2023-05-13T08:53:55.303Z,98670.47
2023-05-13T08:59:23.106Z,98665.09
2023-05-13T09:04:49.133Z,98675.41
2023-05-13T09:10:16.083Z,98663.94
2023-05-13T09:15:44.364Z,98662.38
2023-05-13T09:21:33.227Z,98655.75
2023-05-13T09:26:58.116Z,98657.06
2023-05-13T09:32:32.189Z,98661.94
2023-05-13T09:37:58.116Z,98656.34
2023-05-13T09:43:24.181Z,98659.38
2023-05-13T09:48:54.618Z,98655.22
2023-05-13T09:54:21.126Z,98656.91
2023-05-13T09:59:46.127Z,98651.53
2023-05-13T10:05:13.134Z,98656.63
2023-05-13T10:10:47.373Z,98647.13
2023-05-13T10:16:13.214Z,98652.66
2023-05-13T10:21:43.141Z,98650.38
2023-05-13T10:27:11.193Z,98638.81
2023-05-13T10:32:36.214Z,98643.41
2023-05-13T10:38:17.229Z,98633.78
2023-05-13T10:43:44.186Z,98630.25
2023-05-13T10:49:10.166Z,98629.22
2023-05-13T10:54:39.167Z,98631.34
2023-05-13T11:00:24.406Z,98640.56
2023-05-13T11:05:49.214Z,98636.16
2023-05-13T11:11:44.168Z,98643.53
2023-05-13T11:17:26.227Z,98631.75
2023-05-13T11:22:51.292Z,98638.00
2023-05-13T11:28:16.179Z,98639.72
2023-05-13T11:34:22.169Z,98627.75
2023-05-13T11:39:49.212Z,98638.03
2023-05-13T11:45:15.225Z,98630.88
2023-05-13T11:50:43.214Z,98620.84
2023-05-13T11:56:07.239Z,98618.03
2023-05-13T12:01:32.239Z,98627.69
2023-05-13T12:07:02.194Z,98629.25
2023-05-13T12:12:28.198Z,98624.19
2023-05-13T12:17:53.394Z,98633.41
2023-05-13T12:23:21.218Z,98640.53
2023-05-13T12:28:47.265Z,98641.78
2023-05-13T12:34:18.278Z,98643.47
2023-05-13T12:39:46.220Z,98653.34
2023-05-13T12:45:11.231Z,98654.84
2023-05-13T12:50:37.230Z,98652.34
2023-05-13T12:56:04.269Z,98645.84
2023-05-13T13:01:30.302Z,98656.53
2023-05-13T13:06:54.272Z,98653.19
2023-05-13T13:12:22.562Z,98654.63
2023-05-13T13:17:46.302Z,98651.31
2023-05-13T13:23:11.325Z,98654.03
2023-05-13T13:28:39.312Z,98653.16
2023-05-13T13:34:12.344Z,98657.13
2023-05-13T13:39:37.293Z,98649.31
2023-05-13T13:45:04.279Z,98641.28
2023-05-13T13:50:29.326Z,98640.69
2023-05-13T13:55:53.267Z,98634.63
2023-05-13T14:01:21.327Z,98637.59
2023-05-13T14:06:45.319Z,98628.00
2023-05-13T14:12:10.326Z,98612.09
2023-05-13T14:17:37.317Z,98612.81
2023-05-13T14:23:05.063Z,98609.03
2023-05-13T14:28:29.296Z,98609.06
2023-05-13T14:34:03.674Z,98607.66
2023-05-13T14:39:29.334Z,98613.50
2023-05-13T14:44:53.493Z,98610.50
2023-05-13T14:50:22.629Z,98618.63
2023-05-13T14:55:46.330Z,98616.66
2023-05-13T15:01:11.454Z,98618.69
2023-05-13T15:06:38.313Z,98625.22
2023-05-13T15:12:03.340Z,98618.16
2023-05-13T15:17:27.442Z,98622.03
2023-05-13T15:22:55.325Z,98628.97
2023-05-13T15:28:20.325Z,98620.38
2023-05-13T15:33:51.369Z,98625.41
2023-05-13T15:39:19.368Z,98623.06
2023-05-13T15:44:43.416Z,98627.78
2023-05-13T15:50:08.369Z,98622.22
2023-05-13T15:55:35.341Z,98620.84
2023-05-13T16:01:00.429Z,98609.19
2023-05-13T16:06:25.386Z,98612.94
2023-05-13T16:11:53.387Z,98608.97
2023-05-13T16:17:17.383Z,98600.88
2023-05-13T16:22:44.395Z,98597.84
2023-05-13T16:28:11.383Z,98602.66
2023-05-13T16:33:43.410Z,98602.66
2023-05-13T16:39:08.583Z,98597.66
2023-05-13T16:44:35.414Z,98594.97
2023-05-13T16:50:02.397Z,98594.38
2023-05-13T16:55:27.411Z,98587.78
2023-05-13T17:00:57.722Z,98598.69
2023-05-13T17:06:23.420Z,98594.66
2023-05-13T17:11:49.669Z,98599.72
2023-05-13T17:17:16.453Z,98596.22
2023-05-13T17:22:41.428Z,98593.09
2023-05-13T17:28:06.473Z,98589.69
2023-05-13T17:33:40.439Z,98594.22
2023-05-13T17:39:05.429Z,98595.91
2023-05-13T17:44:30.658Z,98605.56
2023-05-13T17:49:58.443Z,98600.19
2023-05-13T17:55:24.468Z,98598.91
2023-05-13T18:00:49.494Z,98607.41
2023-05-13T18:06:16.506Z,98611.78
2023-05-13T18:11:41.678Z,98606.97
2023-05-13T18:17:05.449Z,98608.31
2023-05-13T18:22:33.479Z,98614.56
2023-05-13T18:27:58.474Z,98614.59
2023-05-13T18:33:23.478Z,98630.25
2023-05-13T18:38:52.724Z,98626.75
2023-05-13T18:44:17.529Z,98634.47
2023-05-13T18:49:41.519Z,98642.13
2023-05-13T18:55:12.538Z,98648.94
2023-05-13T19:00:36.497Z,98648.56
2023-05-13T19:06:01.493Z,98657.25
2023-05-13T19:11:29.514Z,98658.03
2023-05-13T19:16:54.522Z,98667.59
2023-05-13T19:22:18.525Z,98666.41
2023-05-13T19:27:46.617Z,98677.31
2023-05-13T19:33:11.559Z,98672.50
2023-05-13T19:38:36.557Z,98682.72
2023-05-13T19:44:04.570Z,98677.50
2023-05-13T19:49:29.559Z,98680.41
2023-05-13T19:54:53.560Z,98678.56
2023-05-13T20:00:22.711Z,98685.88
2023-05-13T20:05:46.539Z,98686.06
2023-05-13T20:11:11.559Z,98687.91
2023-05-13T20:16:38.568Z,98680.97
2023-05-13T20:22:03.518Z,98680.31
2023-05-13T20:27:28.566Z,98677.78
2023-05-13T20:33:03.599Z,98670.50
2023-05-13T20:38:29.565Z,98671.50
2023-05-13T20:43:53.576Z,98671.50
2023-05-13T20:49:21.564Z,98674.22
2023-05-13T20:54:45.618Z,98668.13
2023-05-13T21:00:10.543Z,98666.09
2023-05-13T21:05:37.778Z,98668.13
2023-05-13T21:11:04.558Z,98666.44
2023-05-13T21:16:30.778Z,98669.50
2023-05-13T21:21:58.634Z,98662.41
2023-05-13T21:27:23.715Z,98667.81
2023-05-13T21:32:48.773Z,98663.78
2023-05-13T21:38:15.568Z,98669.03
2023-05-13T21:43:40.628Z,98669.41
2023-05-13T21:49:05.760Z,98657.34
2023-05-13T21:54:33.609Z,98668.16
2023-05-13T21:59:57.576Z,98673.75
2023-05-13T22:05:23.792Z,98663.63
2023-05-13T22:10:50.618Z,98666.66
2023-05-13T22:16:16.751Z,98660.41
2023-05-13T22:21:40.604Z,98663.97
2023-05-13T22:27:08.937Z,98659.75
2023-05-13T22:32:32.682Z,98651.66
2023-05-13T22:37:59.621Z,98659.78
2023-05-13T22:43:27.651Z,98647.59
2023-05-13T22:48:52.630Z,98645.59
2023-05-13T22:54:17.628Z,98649.81
2023-05-13T22:59:45.658Z,98650.66
2023-05-13T23:05:09.632Z,98652.69
2023-05-13T23:10:34.634Z,98646.09
2023-05-13T23:16:01.671Z,98644.94
2023-05-13T23:21:26.629Z,98634.13
2023-05-13T23:26:51.825Z,98627.03
2023-05-13T23:32:19.665Z,98628.72
2023-05-13T23:37:43.631Z,98633.13
2023-05-13T23:43:08.639Z,98625.72
2023-05-13T23:48:37.660Z,98615.75
2023-05-13T23:54:02.672Z,98616.06
2023-05-13T23:59:26.696Z,98607.47
